sensor_id;sensor_type;location;lat;lon;timestamp;P1;durP1;ratioP1;P2;durP2;ratioP2
53843;SDS011;39744;53.314;5.710;2023-03-01T00:00:37;123.88;;;17.88;;
53843;SDS011;39744;53.314;5.710;2023-03-01T00:03:02;202.13;;;21.65;;
53843;SDS011;39744;53.314;5.710;2023-03-01T00:05:28;86.93;;;18.10;;
53843;SDS011;39744;53.314;5.710;2023-03-01T00:07:53;272.02;;;25.65;;
53843;SDS011;39744;53.314;5.710;2023-03-01T00:10:20;401.30;;;32.55;;
53843;SDS011;39744;53.314;5.710;2023-03-01T00:12:45;398.45;;;33.30;;
53843;SDS011;39744;53.314;5.710;2023-03-01T00:15:11;125.30;;;18.45;;
53843;SDS011;39744;53.314;5.710;2023-03-01T00:17:37;63.13;;;14.32;;
53843;SDS011;39744;53.314;5.710;2023-03-01T00:20:03;41.03;;;11.40;;
53843;SDS011;39744;53.314;5.710;2023-03-01T00:22:33;55.00;;;15.48;;
53843;SDS011;39744;53.314;5.710;2023-03-01T00:24:58;37.45;;;14.98;;
53843;SDS011;39744;53.314;5.710;2023-03-01T00:27:24;30.60;;;14.40;;
53843;SDS011;39744;53.314;5.710;2023-03-01T00:29:50;203.48;;;17.15;;
53843;SDS011;39744;53.314;5.710;2023-03-01T00:32:15;87.15;;;14.07;;
53843;SDS011;39744;53.314;5.710;2023-03-01T00:34:41;67.60;;;10.85;;
53843;SDS011;39744;53.314;5.710;2023-03-01T00:37:06;197.45;;;18.65;;
53843;SDS011;39744;53.314;5.710;2023-03-01T00:39:32;53.92;;;11.75;;
53843;SDS011;39744;53.314;5.710;2023-03-01T00:41:59;21.55;;;11.05;;
53843;SDS011;39744;53.314;5.710;2023-03-01T00:44:24;104.00;;;14.02;;
53843;SDS011;39744;53.314;5.710;2023-03-01T00:46:50;54.95;;;11.90;;
53843;SDS011;39744;53.314;5.710;2023-03-01T00:49:16;26.17;;;12.32;;
53843;SDS011;39744;53.314;5.710;2023-03-01T00:51:41;45.55;;;11.18;;
53843;SDS011;39744;53.314;5.710;2023-03-01T00:54:07;131.73;;;17.08;;
53843;SDS011;39744;53.314;5.710;2023-03-01T00:56:34;14.07;;;7.90;;
53843;SDS011;39744;53.314;5.710;2023-03-01T00:58:59;26.38;;;12.10;;
53843;SDS011;39744;53.314;5.710;2023-03-01T01:01:26;24.02;;;11.63;;
53843;SDS011;39744;53.314;5.710;2023-03-01T01:03:57;84.03;;;16.73;;
53843;SDS011;39744;53.314;5.710;2023-03-01T01:06:35;228.00;;;21.08;;
53843;SDS011;39744;53.314;5.710;2023-03-01T01:09:03;107.00;;;17.25;;
53843;SDS011;39744;53.314;5.710;2023-03-01T01:11:30;102.68;;;16.88;;
53843;SDS011;39744;53.314;5.710;2023-03-01T01:13:56;172.65;;;19.33;;
53843;SDS011;39744;53.314;5.710;2023-03-01T01:16:23;166.90;;;16.77;;
53843;SDS011;39744;53.314;5.710;2023-03-01T01:18:51;131.65;;;15.35;;
53843;SDS011;39744;53.314;5.710;2023-03-01T01:21:17;211.73;;;22.35;;
53843;SDS011;39744;53.314;5.710;2023-03-01T01:23:45;71.40;;;15.55;;
53843;SDS011;39744;53.314;5.710;2023-03-01T01:26:18;29.63;;;11.75;;
53843;SDS011;39744;53.314;5.710;2023-03-01T01:28:46;50.20;;;11.80;;
53843;SDS011;39744;53.314;5.710;2023-03-01T01:31:12;162.73;;;15.57;;
53843;SDS011;39744;53.314;5.710;2023-03-01T01:33:37;126.50;;;13.90;;
53843;SDS011;39744;53.314;5.710;2023-03-01T01:36:06;97.47;;;12.40;;
53843;SDS011;39744;53.314;5.710;2023-03-01T01:38:33;53.25;;;11.25;;
53843;SDS011;39744;53.314;5.710;2023-03-01T01:40:59;90.75;;;12.93;;
53843;SDS011;39744;53.314;5.710;2023-03-01T01:43:28;15.15;;;8.88;;
53843;SDS011;39744;53.314;5.710;2023-03-01T01:45:57;82.93;;;13.52;;
53843;SDS011;39744;53.314;5.710;2023-03-01T01:48:31;96.50;;;11.77;;
53843;SDS011;39744;53.314;5.710;2023-03-01T01:51:12;66.45;;;12.02;;
53843;SDS011;39744;53.314;5.710;2023-03-01T01:53:41;50.92;;;11.65;;
53843;SDS011;39744;53.314;5.710;2023-03-01T01:56:08;93.88;;;12.50;;
53843;SDS011;39744;53.314;5.710;2023-03-01T01:58:37;100.88;;;13.00;;
53843;SDS011;39744;53.314;5.710;2023-03-01T02:01:04;92.10;;;11.73;;
53843;SDS011;39744;53.314;5.710;2023-03-01T02:03:31;54.10;;;12.23;;
53843;SDS011;39744;53.314;5.710;2023-03-01T02:08:53;98.35;;;10.82;;
53843;SDS011;39744;53.314;5.710;2023-03-01T02:11:24;128.73;;;12.55;;
53843;SDS011;39744;53.314;5.710;2023-03-01T02:13:51;148.40;;;12.93;;
53843;SDS011;39744;53.314;5.710;2023-03-01T02:16:18;141.48;;;11.23;;
53843;SDS011;39744;53.314;5.710;2023-03-01T02:18:44;161.43;;;12.20;;
53843;SDS011;39744;53.314;5.710;2023-03-01T02:24:20;137.90;;;10.40;;
53843;SDS011;39744;53.314;5.710;2023-03-01T02:26:56;89.65;;;10.45;;
53843;SDS011;39744;53.314;5.710;2023-03-01T02:29:23;104.70;;;11.10;;
53843;SDS011;39744;53.314;5.710;2023-03-01T02:31:49;46.53;;;9.75;;
53843;SDS011;39744;53.314;5.710;2023-03-01T02:34:18;17.52;;;7.18;;
53843;SDS011;39744;53.314;5.710;2023-03-01T02:36:47;67.20;;;10.40;;
53843;SDS011;39744;53.314;5.710;2023-03-01T02:39:26;15.88;;;6.50;;
53843;SDS011;39744;53.314;5.710;2023-03-01T02:41:59;51.03;;;8.43;;
53843;SDS011;39744;53.314;5.710;2023-03-01T02:44:26;12.23;;;6.05;;
53843;SDS011;39744;53.314;5.710;2023-03-01T02:46:53;69.82;;;8.23;;
53843;SDS011;39744;53.314;5.710;2023-03-01T02:49:22;93.95;;;9.82;;
53843;SDS011;39744;53.314;5.710;2023-03-01T02:52:07;82.70;;;9.05;;
53843;SDS011;39744;53.314;5.710;2023-03-01T02:54:47;152.88;;;12.82;;
53843;SDS011;39744;53.314;5.710;2023-03-01T02:57:34;66.50;;;13.32;;
53843;SDS011;39744;53.314;5.710;2023-03-01T03:00:12;35.05;;;12.57;;
53843;SDS011;39744;53.314;5.710;2023-03-01T03:02:46;155.75;;;19.13;;
53843;SDS011;39744;53.314;5.710;2023-03-01T03:07:47;186.18;;;16.52;;
53843;SDS011;39744;53.314;5.710;2023-03-01T03:10:24;66.75;;;12.27;;
53843;SDS011;39744;53.314;5.710;2023-03-01T03:12:56;216.65;;;18.73;;
53843;SDS011;39744;53.314;5.710;2023-03-01T03:15:24;77.15;;;11.80;;
53843;SDS011;39744;53.314;5.710;2023-03-01T03:17:51;217.73;;;16.20;;
53843;SDS011;39744;53.314;5.710;2023-03-01T03:20:19;107.82;;;12.95;;
53843;SDS011;39744;53.314;5.710;2023-03-01T03:22:47;164.60;;;13.00;;
53843;SDS011;39744;53.314;5.710;2023-03-01T03:25:14;128.02;;;10.85;;
53843;SDS011;39744;53.314;5.710;2023-03-01T03:27:40;137.65;;;11.85;;
53843;SDS011;39744;53.314;5.710;2023-03-01T03:30:10;229.57;;;14.82;;
53843;SDS011;39744;53.314;5.710;2023-03-01T03:32:40;203.82;;;14.82;;
53843;SDS011;39744;53.314;5.710;2023-03-01T03:35:17;137.45;;;12.73;;
53843;SDS011;39744;53.314;5.710;2023-03-01T03:37:47;182.52;;;15.00;;
53843;SDS011;39744;53.314;5.710;2023-03-01T03:43:01;102.80;;;11.63;;
53843;SDS011;39744;53.314;5.710;2023-03-01T03:45:35;159.50;;;13.13;;
53843;SDS011;39744;53.314;5.710;2023-03-01T03:48:02;125.20;;;13.50;;
53843;SDS011;39744;53.314;5.710;2023-03-01T03:50:29;131.73;;;13.57;;
53843;SDS011;39744;53.314;5.710;2023-03-01T03:52:54;75.72;;;11.30;;
53843;SDS011;39744;53.314;5.710;2023-03-01T03:55:20;81.47;;;12.82;;
53843;SDS011;39744;53.314;5.710;2023-03-01T03:57:47;134.75;;;11.60;;
53843;SDS011;39744;53.314;5.710;2023-03-01T04:03:47;66.35;;;7.18;;
53843;SDS011;39744;53.314;5.710;2023-03-01T04:06:13;159.40;;;13.65;;
53843;SDS011;39744;53.314;5.710;2023-03-01T04:08:39;134.57;;;9.68;;
53843;SDS011;39744;53.314;5.710;2023-03-01T04:11:05;62.33;;;7.60;;
53843;SDS011;39744;53.314;5.710;2023-03-01T04:13:50;83.15;;;8.13;;
53843;SDS011;39744;53.314;5.710;2023-03-01T04:16:17;80.45;;;7.40;;
53843;SDS011;39744;53.314;5.710;2023-03-01T04:18:43;62.25;;;7.13;;
53843;SDS011;39744;53.314;5.710;2023-03-01T04:21:09;87.47;;;8.45;;
53843;SDS011;39744;53.314;5.710;2023-03-01T04:23:36;97.18;;;8.57;;
53843;SDS011;39744;53.314;5.710;2023-03-01T04:26:03;102.43;;;8.73;;
53843;SDS011;39744;53.314;5.710;2023-03-01T04:28:36;54.50;;;7.15;;
53843;SDS011;39744;53.314;5.710;2023-03-01T04:31:14;62.72;;;7.50;;
53843;SDS011;39744;53.314;5.710;2023-03-01T04:33:44;76.85;;;8.35;;
53843;SDS011;39744;53.314;5.710;2023-03-01T04:36:16;157.18;;;12.05;;
53843;SDS011;39744;53.314;5.710;2023-03-01T04:38:43;109.30;;;10.15;;
53843;SDS011;39744;53.314;5.710;2023-03-01T04:41:12;185.25;;;13.27;;
53843;SDS011;39744;53.314;5.710;2023-03-01T04:43:39;258.55;;;16.23;;
53843;SDS011;39744;53.314;5.710;2023-03-01T04:46:06;166.30;;;15.02;;
53843;SDS011;39744;53.314;5.710;2023-03-01T04:48:34;62.65;;;10.77;;
53843;SDS011;39744;53.314;5.710;2023-03-01T04:51:02;53.97;;;9.68;;
53843;SDS011;39744;53.314;5.710;2023-03-01T04:53:28;154.65;;;16.08;;
53843;SDS011;39744;53.314;5.710;2023-03-01T04:55:55;48.70;;;10.23;;
53843;SDS011;39744;53.314;5.710;2023-03-01T04:58:22;100.53;;;11.77;;
53843;SDS011;39744;53.314;5.710;2023-03-01T05:00:49;203.50;;;16.25;;
53843;SDS011;39744;53.314;5.710;2023-03-01T05:03:15;201.85;;;18.25;;
53843;SDS011;39744;53.314;5.710;2023-03-01T05:05:43;103.47;;;12.20;;
53843;SDS011;39744;53.314;5.710;2023-03-01T05:08:10;157.60;;;15.43;;
53843;SDS011;39744;53.314;5.710;2023-03-01T05:10:42;194.15;;;17.83;;
53843;SDS011;39744;53.314;5.710;2023-03-01T05:13:11;301.27;;;21.50;;
53843;SDS011;39744;53.314;5.710;2023-03-01T05:15:38;153.45;;;15.50;;
53843;SDS011;39744;53.314;5.710;2023-03-01T05:18:04;132.07;;;16.77;;
53843;SDS011;39744;53.314;5.710;2023-03-01T05:20:36;228.20;;;16.80;;
53843;SDS011;39744;53.314;5.710;2023-03-01T05:23:02;180.15;;;15.32;;
53843;SDS011;39744;53.314;5.710;2023-03-01T05:25:30;233.90;;;19.33;;
53843;SDS011;39744;53.314;5.710;2023-03-01T05:27:58;200.32;;;17.67;;
53843;SDS011;39744;53.314;5.710;2023-03-01T05:30:29;92.20;;;12.43;;
53843;SDS011;39744;53.314;5.710;2023-03-01T05:32:58;83.85;;;12.20;;
53843;SDS011;39744;53.314;5.710;2023-03-01T05:35:24;96.38;;;12.38;;
53843;SDS011;39744;53.314;5.710;2023-03-01T05:37:50;83.47;;;11.48;;
53843;SDS011;39744;53.314;5.710;2023-03-01T05:40:18;66.82;;;11.20;;
53843;SDS011;39744;53.314;5.710;2023-03-01T05:42:45;88.60;;;11.85;;
53843;SDS011;39744;53.314;5.710;2023-03-01T05:45:12;58.42;;;11.93;;
53843;SDS011;39744;53.314;5.710;2023-03-01T05:47:40;66.07;;;12.90;;
53843;SDS011;39744;53.314;5.710;2023-03-01T05:50:09;105.28;;;14.27;;
53843;SDS011;39744;53.314;5.710;2023-03-01T05:52:51;56.85;;;11.30;;
53843;SDS011;39744;53.314;5.710;2023-03-01T05:55:22;21.10;;;10.02;;
53843;SDS011;39744;53.314;5.710;2023-03-01T05:57:47;37.20;;;9.88;;
53843;SDS011;39744;53.314;5.710;2023-03-01T06:00:15;34.55;;;9.98;;
53843;SDS011;39744;53.314;5.710;2023-03-01T06:02:43;74.75;;;11.68;;
53843;SDS011;39744;53.314;5.710;2023-03-01T06:05:09;59.25;;;13.93;;
53843;SDS011;39744;53.314;5.710;2023-03-01T06:07:36;32.20;;;10.80;;
53843;SDS011;39744;53.314;5.710;2023-03-01T06:10:02;113.50;;;17.13;;
53843;SDS011;39744;53.314;5.710;2023-03-01T06:12:36;74.35;;;13.65;;
53843;SDS011;39744;53.314;5.710;2023-03-01T06:15:03;69.07;;;15.38;;
53843;SDS011;39744;53.314;5.710;2023-03-01T06:17:30;19.55;;;10.15;;
53843;SDS011;39744;53.314;5.710;2023-03-01T06:19:58;51.45;;;13.10;;
53843;SDS011;39744;53.314;5.710;2023-03-01T06:22:23;27.70;;;11.15;;
53843;SDS011;39744;53.314;5.710;2023-03-01T06:24:49;20.08;;;10.00;;
53843;SDS011;39744;53.314;5.710;2023-03-01T06:27:15;17.48;;;9.52;;
53843;SDS011;39744;53.314;5.710;2023-03-01T06:29:41;32.05;;;10.98;;
53843;SDS011;39744;53.314;5.710;2023-03-01T06:32:06;18.58;;;9.23;;
53843;SDS011;39744;53.314;5.710;2023-03-01T06:34:33;40.65;;;11.20;;
53843;SDS011;39744;53.314;5.710;2023-03-01T06:36:58;38.67;;;10.35;;
53843;SDS011;39744;53.314;5.710;2023-03-01T06:39:24;29.55;;;9.77;;
53843;SDS011;39744;53.314;5.710;2023-03-01T06:41:49;31.48;;;10.07;;
53843;SDS011;39744;53.314;5.710;2023-03-01T06:44:15;23.70;;;9.85;;
53843;SDS011;39744;53.314;5.710;2023-03-01T06:46:41;15.30;;;9.70;;
53843;SDS011;39744;53.314;5.710;2023-03-01T06:49:06;15.63;;;9.40;;
53843;SDS011;39744;53.314;5.710;2023-03-01T06:51:34;16.05;;;10.20;;
53843;SDS011;39744;53.314;5.710;2023-03-01T06:54:02;16.00;;;9.27;;
53843;SDS011;39744;53.314;5.710;2023-03-01T06:56:28;17.25;;;9.63;;
53843;SDS011;39744;53.314;5.710;2023-03-01T06:58:54;16.42;;;10.05;;
53843;SDS011;39744;53.314;5.710;2023-03-01T07:01:20;14.10;;;9.07;;
53843;SDS011;39744;53.314;5.710;2023-03-01T07:03:45;15.73;;;9.45;;
53843;SDS011;39744;53.314;5.710;2023-03-01T07:06:11;14.38;;;9.20;;
53843;SDS011;39744;53.314;5.710;2023-03-01T07:08:37;15.43;;;9.68;;
53843;SDS011;39744;53.314;5.710;2023-03-01T07:11:02;28.80;;;10.43;;
53843;SDS011;39744;53.314;5.710;2023-03-01T07:13:28;18.42;;;10.02;;
53843;SDS011;39744;53.314;5.710;2023-03-01T07:15:54;19.77;;;10.30;;
53843;SDS011;39744;53.314;5.710;2023-03-01T07:18:20;22.08;;;11.27;;
53843;SDS011;39744;53.314;5.710;2023-03-01T07:20:46;20.38;;;11.05;;
53843;SDS011;39744;53.314;5.710;2023-03-01T07:23:12;24.73;;;11.60;;
53843;SDS011;39744;53.314;5.710;2023-03-01T07:25:37;16.90;;;9.85;;
53843;SDS011;39744;53.314;5.710;2023-03-01T07:28:03;18.08;;;10.93;;
53843;SDS011;39744;53.314;5.710;2023-03-01T07:30:29;17.40;;;10.55;;
53843;SDS011;39744;53.314;5.710;2023-03-01T07:32:56;15.70;;;10.00;;
53843;SDS011;39744;53.314;5.710;2023-03-01T07:35:23;14.73;;;9.80;;
53843;SDS011;39744;53.314;5.710;2023-03-01T07:37:50;14.05;;;9.30;;
53843;SDS011;39744;53.314;5.710;2023-03-01T07:40:16;15.15;;;9.20;;
53843;SDS011;39744;53.314;5.710;2023-03-01T07:42:42;17.05;;;10.07;;
53843;SDS011;39744;53.314;5.710;2023-03-01T07:45:08;16.77;;;9.98;;
53843;SDS011;39744;53.314;5.710;2023-03-01T07:47:34;17.85;;;10.75;;
53843;SDS011;39744;53.314;5.710;2023-03-01T07:50:00;20.83;;;11.25;;
53843;SDS011;39744;53.314;5.710;2023-03-01T07:52:27;23.95;;;12.50;;
53843;SDS011;39744;53.314;5.710;2023-03-01T07:54:53;21.27;;;13.00;;
53843;SDS011;39744;53.314;5.710;2023-03-01T07:57:19;22.58;;;12.45;;
53843;SDS011;39744;53.314;5.710;2023-03-01T07:59:45;18.70;;;10.45;;
53843;SDS011;39744;53.314;5.710;2023-03-01T08:02:10;17.08;;;10.30;;
53843;SDS011;39744;53.314;5.710;2023-03-01T08:04:36;18.05;;;11.15;;
53843;SDS011;39744;53.314;5.710;2023-03-01T08:07:04;19.88;;;11.60;;
53843;SDS011;39744;53.314;5.710;2023-03-01T08:09:30;19.75;;;11.70;;
53843;SDS011;39744;53.314;5.710;2023-03-01T08:11:56;18.73;;;10.93;;
53843;SDS011;39744;53.314;5.710;2023-03-01T08:14:24;19.63;;;11.20;;
53843;SDS011;39744;53.314;5.710;2023-03-01T08:16:50;21.85;;;11.38;;
53843;SDS011;39744;53.314;5.710;2023-03-01T08:19:16;19.52;;;10.40;;
53843;SDS011;39744;53.314;5.710;2023-03-01T08:21:42;20.80;;;11.43;;
53843;SDS011;39744;53.314;5.710;2023-03-01T08:24:07;27.60;;;13.68;;
53843;SDS011;39744;53.314;5.710;2023-03-01T08:26:35;21.30;;;12.18;;
53843;SDS011;39744;53.314;5.710;2023-03-01T08:29:02;23.65;;;13.18;;
53843;SDS011;39744;53.314;5.710;2023-03-01T08:31:29;27.60;;;13.18;;
53843;SDS011;39744;53.314;5.710;2023-03-01T08:34:01;28.33;;;13.05;;
53843;SDS011;39744;53.314;5.710;2023-03-01T08:36:32;25.10;;;13.77;;
53843;SDS011;39744;53.314;5.710;2023-03-01T08:39:02;26.40;;;14.60;;
53843;SDS011;39744;53.314;5.710;2023-03-01T08:41:28;30.38;;;14.73;;
53843;SDS011;39744;53.314;5.710;2023-03-01T08:43:54;26.15;;;13.48;;
53843;SDS011;39744;53.314;5.710;2023-03-01T08:46:24;26.88;;;15.32;;
53843;SDS011;39744;53.314;5.710;2023-03-01T08:48:51;25.60;;;14.35;;
53843;SDS011;39744;53.314;5.710;2023-03-01T08:51:17;26.13;;;14.30;;
53843;SDS011;39744;53.314;5.710;2023-03-01T08:53:43;22.45;;;13.23;;
53843;SDS011;39744;53.314;5.710;2023-03-01T08:56:10;24.52;;;14.25;;
53843;SDS011;39744;53.314;5.710;2023-03-01T08:58:36;23.77;;;14.25;;
53843;SDS011;39744;53.314;5.710;2023-03-01T09:01:12;27.85;;;15.05;;
53843;SDS011;39744;53.314;5.710;2023-03-01T09:03:39;23.73;;;14.98;;
53843;SDS011;39744;53.314;5.710;2023-03-01T09:06:06;26.52;;;15.00;;
53843;SDS011;39744;53.314;5.710;2023-03-01T09:08:39;27.05;;;15.77;;
53843;SDS011;39744;53.314;5.710;2023-03-01T09:11:07;30.38;;;16.98;;
53843;SDS011;39744;53.314;5.710;2023-03-01T09:13:34;26.25;;;15.27;;
53843;SDS011;39744;53.314;5.710;2023-03-01T09:16:01;28.05;;;16.27;;
53843;SDS011;39744;53.314;5.710;2023-03-01T09:18:28;26.90;;;15.50;;
53843;SDS011;39744;53.314;5.710;2023-03-01T09:21:01;29.73;;;16.30;;
53843;SDS011;39744;53.314;5.710;2023-03-01T09:23:32;24.88;;;15.38;;
53843;SDS011;39744;53.314;5.710;2023-03-01T09:25:59;27.13;;;15.85;;
53843;SDS011;39744;53.314;5.710;2023-03-01T09:28:24;29.48;;;15.90;;
53843;SDS011;39744;53.314;5.710;2023-03-01T09:30:50;26.52;;;15.43;;
53843;SDS011;39744;53.314;5.710;2023-03-01T09:33:16;24.60;;;15.27;;
53843;SDS011;39744;53.314;5.710;2023-03-01T09:35:41;24.35;;;13.73;;
53843;SDS011;39744;53.314;5.710;2023-03-01T09:38:12;29.08;;;13.88;;
53843;SDS011;39744;53.314;5.710;2023-03-01T09:40:41;22.23;;;13.60;;
53843;SDS011;39744;53.314;5.710;2023-03-01T09:46:05;19.10;;;11.98;;
53843;SDS011;39744;53.314;5.710;2023-03-01T09:48:38;17.92;;;12.20;;
53843;SDS011;39744;53.314;5.710;2023-03-01T09:51:18;17.95;;;11.55;;
53843;SDS011;39744;53.314;5.710;2023-03-01T09:53:49;18.08;;;12.73;;
53843;SDS011;39744;53.314;5.710;2023-03-01T09:58:54;18.02;;;12.10;;
53843;SDS011;39744;53.314;5.710;2023-03-01T10:09:35;16.85;;;11.27;;
53843;SDS011;39744;53.314;5.710;2023-03-01T10:12:04;21.63;;;11.88;;
53843;SDS011;39744;53.314;5.710;2023-03-01T10:14:39;15.65;;;10.90;;
53843;SDS011;39744;53.314;5.710;2023-03-01T10:17:39;15.85;;;11.55;;
53843;SDS011;39744;53.314;5.710;2023-03-01T10:20:15;16.33;;;10.73;;
53843;SDS011;39744;53.314;5.710;2023-03-01T10:22:46;15.88;;;10.75;;
53843;SDS011;39744;53.314;5.710;2023-03-01T10:25:15;14.15;;;9.68;;
53843;SDS011;39744;53.314;5.710;2023-03-01T10:27:59;16.08;;;9.70;;
53843;SDS011;39744;53.314;5.710;2023-03-01T10:30:34;16.50;;;10.82;;
53843;SDS011;39744;53.314;5.710;2023-03-01T10:33:06;15.60;;;10.25;;
53843;SDS011;39744;53.314;5.710;2023-03-01T10:35:44;16.02;;;10.65;;
53843;SDS011;39744;53.314;5.710;2023-03-01T10:38:11;17.15;;;11.40;;
53843;SDS011;39744;53.314;5.710;2023-03-01T10:43:53;15.63;;;10.57;;
53843;SDS011;39744;53.314;5.710;2023-03-01T10:46:29;14.02;;;10.02;;
53843;SDS011;39744;53.314;5.710;2023-03-01T10:51:48;9.35;;;6.28;;
53843;SDS011;39744;53.314;5.710;2023-03-01T10:54:16;10.05;;;7.25;;
53843;SDS011;39744;53.314;5.710;2023-03-01T10:56:49;12.10;;;8.15;;
53843;SDS011;39744;53.314;5.710;2023-03-01T10:59:30;12.65;;;8.27;;
53843;SDS011;39744;53.314;5.710;2023-03-01T11:04:57;12.15;;;7.95;;
53843;SDS011;39744;53.314;5.710;2023-03-01T11:07:23;11.70;;;7.85;;
53843;SDS011;39744;53.314;5.710;2023-03-01T11:09:48;11.73;;;8.18;;
53843;SDS011;39744;53.314;5.710;2023-03-01T11:12:14;13.18;;;8.70;;
53843;SDS011;39744;53.314;5.710;2023-03-01T11:14:48;12.75;;;8.20;;
53843;SDS011;39744;53.314;5.710;2023-03-01T11:17:23;11.55;;;8.23;;
53843;SDS011;39744;53.314;5.710;2023-03-01T11:22:50;11.77;;;8.13;;
53843;SDS011;39744;53.314;5.710;2023-03-01T11:25:26;13.00;;;8.05;;
53843;SDS011;39744;53.314;5.710;2023-03-01T11:27:57;12.82;;;8.70;;
53843;SDS011;39744;53.314;5.710;2023-03-01T11:30:27;12.65;;;8.23;;
53843;SDS011;39744;53.314;5.710;2023-03-01T11:38:53;11.13;;;6.72;;
53843;SDS011;39744;53.314;5.710;2023-03-01T11:41:20;11.88;;;7.57;;
53843;SDS011;39744;53.314;5.710;2023-03-01T11:44:11;14.35;;;7.72;;
53843;SDS011;39744;53.314;5.710;2023-03-01T12:03:53;14.20;;;7.80;;
53843;SDS011;39744;53.314;5.710;2023-03-01T12:20:53;12.00;;;7.90;;
53843;SDS011;39744;53.314;5.710;2023-03-01T12:26:29;12.50;;;7.65;;
53843;SDS011;39744;53.314;5.710;2023-03-01T12:31:39;11.15;;;7.65;;
53843;SDS011;39744;53.314;5.710;2023-03-01T12:34:25;10.37;;;7.27;;
53843;SDS011;39744;53.314;5.710;2023-03-01T12:37:11;12.95;;;8.05;;
53843;SDS011;39744;53.314;5.710;2023-03-01T12:43:01;12.73;;;8.57;;
53843;SDS011;39744;53.314;5.710;2023-03-01T12:50:44;15.60;;;10.20;;
53843;SDS011;39744;53.314;5.710;2023-03-01T12:53:26;14.25;;;9.93;;
53843;SDS011;39744;53.314;5.710;2023-03-01T12:55:55;14.77;;;9.65;;
53843;SDS011;39744;53.314;5.710;2023-03-01T12:58:32;14.93;;;9.48;;
53843;SDS011;39744;53.314;5.710;2023-03-01T13:01:05;15.25;;;10.10;;
53843;SDS011;39744;53.314;5.710;2023-03-01T13:06:27;15.55;;;10.10;;
53843;SDS011;39744;53.314;5.710;2023-03-01T13:11:41;14.02;;;9.57;;
53843;SDS011;39744;53.314;5.710;2023-03-01T13:16:46;16.42;;;9.95;;
53843;SDS011;39744;53.314;5.710;2023-03-01T13:21:45;16.45;;;9.95;;
53843;SDS011;39744;53.314;5.710;2023-03-01T13:24:28;18.98;;;10.23;;
53843;SDS011;39744;53.314;5.710;2023-03-01T13:29:52;19.13;;;13.40;;
53843;SDS011;39744;53.314;5.710;2023-03-01T13:32:31;16.08;;;10.20;;
53843;SDS011;39744;53.314;5.710;2023-03-01T13:35:01;19.48;;;12.55;;
53843;SDS011;39744;53.314;5.710;2023-03-01T13:37:38;29.63;;;17.60;;
53843;SDS011;39744;53.314;5.710;2023-03-01T13:40:07;19.95;;;10.55;;
53843;SDS011;39744;53.314;5.710;2023-03-01T13:42:51;17.25;;;11.05;;
53843;SDS011;39744;53.314;5.710;2023-03-01T13:45:38;16.75;;;10.60;;
53843;SDS011;39744;53.314;5.710;2023-03-01T13:48:09;14.02;;;9.65;;
53843;SDS011;39744;53.314;5.710;2023-03-01T13:50:48;17.02;;;9.68;;
53843;SDS011;39744;53.314;5.710;2023-03-01T13:53:22;19.42;;;10.25;;
53843;SDS011;39744;53.314;5.710;2023-03-01T13:55:56;14.60;;;9.93;;
53843;SDS011;39744;53.314;5.710;2023-03-01T13:58:29;16.17;;;9.57;;
53843;SDS011;39744;53.314;5.710;2023-03-01T14:01:00;15.45;;;9.48;;
53843;SDS011;39744;53.314;5.710;2023-03-01T14:03:28;43.58;;;31.63;;
53843;SDS011;39744;53.314;5.710;2023-03-01T14:06:04;17.63;;;11.57;;
53843;SDS011;39744;53.314;5.710;2023-03-01T14:08:32;16.83;;;9.60;;
53843;SDS011;39744;53.314;5.710;2023-03-01T14:21:45;55.47;;;33.15;;
53843;SDS011;39744;53.314;5.710;2023-03-01T14:24:21;16.98;;;10.07;;
53843;SDS011;39744;53.314;5.710;2023-03-01T14:26:48;27.65;;;21.20;;
53843;SDS011;39744;53.314;5.710;2023-03-01T14:29:33;15.55;;;9.80;;
53843;SDS011;39744;53.314;5.710;2023-03-01T14:32:20;15.52;;;9.50;;
53843;SDS011;39744;53.314;5.710;2023-03-01T14:34:48;14.43;;;8.93;;
53843;SDS011;39744;53.314;5.710;2023-03-01T14:37:22;16.27;;;9.30;;
53843;SDS011;39744;53.314;5.710;2023-03-01T14:39:51;13.50;;;8.88;;
53843;SDS011;39744;53.314;5.710;2023-03-01T14:42:18;14.15;;;8.48;;
53843;SDS011;39744;53.314;5.710;2023-03-01T14:44:46;15.40;;;8.48;;
53843;SDS011;39744;53.314;5.710;2023-03-01T14:47:23;14.93;;;9.43;;
53843;SDS011;39744;53.314;5.710;2023-03-01T14:50:40;18.00;;;9.43;;
53843;SDS011;39744;53.314;5.710;2023-03-01T14:52:50;16.80;;;9.35;;
53843;SDS011;39744;53.314;5.710;2023-03-01T14:55:19;15.88;;;8.98;;
53843;SDS011;39744;53.314;5.710;2023-03-01T14:57:59;15.88;;;9.48;;
53843;SDS011;39744;53.314;5.710;2023-03-01T15:00:30;17.85;;;10.20;;
53843;SDS011;39744;53.314;5.710;2023-03-01T15:03:00;16.08;;;9.43;;
53843;SDS011;39744;53.314;5.710;2023-03-01T15:05:34;14.68;;;9.00;;
53843;SDS011;39744;53.314;5.710;2023-03-01T15:08:01;15.40;;;9.38;;
53843;SDS011;39744;53.314;5.710;2023-03-01T15:10:29;15.40;;;9.50;;
53843;SDS011;39744;53.314;5.710;2023-03-01T15:13:09;16.23;;;9.95;;
53843;SDS011;39744;53.314;5.710;2023-03-01T15:15:43;17.90;;;9.68;;
53843;SDS011;39744;53.314;5.710;2023-03-01T15:18:14;16.17;;;9.13;;
53843;SDS011;39744;53.314;5.710;2023-03-01T15:20:45;16.48;;;9.60;;
53843;SDS011;39744;53.314;5.710;2023-03-01T15:23:22;16.98;;;9.40;;
53843;SDS011;39744;53.314;5.710;2023-03-01T15:25:50;16.38;;;9.35;;
53843;SDS011;39744;53.314;5.710;2023-03-01T15:28:27;17.08;;;9.43;;
53843;SDS011;39744;53.314;5.710;2023-03-01T15:30:57;17.73;;;9.65;;
53843;SDS011;39744;53.314;5.710;2023-03-01T15:35:52;21.80;;;10.95;;
53843;SDS011;39744;53.314;5.710;2023-03-01T15:38:50;19.40;;;9.95;;
53843;SDS011;39744;53.314;5.710;2023-03-01T15:41:29;19.85;;;9.07;;
53843;SDS011;39744;53.314;5.710;2023-03-01T15:46:52;19.88;;;9.93;;
53843;SDS011;39744;53.314;5.710;2023-03-01T15:49:22;19.58;;;9.90;;
53843;SDS011;39744;53.314;5.710;2023-03-01T15:51:54;18.15;;;8.32;;
53843;SDS011;39744;53.314;5.710;2023-03-01T15:54:21;14.43;;;8.95;;
53843;SDS011;39744;53.314;5.710;2023-03-01T15:56:49;17.70;;;10.45;;
53843;SDS011;39744;53.314;5.710;2023-03-01T15:59:15;19.20;;;9.10;;
53843;SDS011;39744;53.314;5.710;2023-03-01T16:01:42;19.13;;;9.85;;
53843;SDS011;39744;53.314;5.710;2023-03-01T16:04:11;18.75;;;10.10;;
53843;SDS011;39744;53.314;5.710;2023-03-01T16:06:45;17.20;;;9.80;;
53843;SDS011;39744;53.314;5.710;2023-03-01T16:09:18;21.85;;;10.85;;
53843;SDS011;39744;53.314;5.710;2023-03-01T16:11:44;19.23;;;10.32;;
53843;SDS011;39744;53.314;5.710;2023-03-01T16:14:09;19.27;;;10.55;;
53843;SDS011;39744;53.314;5.710;2023-03-01T16:16:35;22.70;;;11.20;;
53843;SDS011;39744;53.314;5.710;2023-03-01T16:19:00;20.83;;;10.73;;
53843;SDS011;39744;53.314;5.710;2023-03-01T16:21:26;22.52;;;11.30;;
53843;SDS011;39744;53.314;5.710;2023-03-01T16:23:52;20.77;;;11.43;;
53843;SDS011;39744;53.314;5.710;2023-03-01T16:26:18;23.75;;;11.02;;
53843;SDS011;39744;53.314;5.710;2023-03-01T16:28:44;44.17;;;21.85;;
53843;SDS011;39744;53.314;5.710;2023-03-01T16:31:10;18.75;;;10.20;;
53843;SDS011;39744;53.314;5.710;2023-03-01T16:33:36;21.33;;;10.20;;
53843;SDS011;39744;53.314;5.710;2023-03-01T16:36:06;23.27;;;11.23;;
53843;SDS011;39744;53.314;5.710;2023-03-01T16:41:01;17.77;;;9.68;;